createdAt,value
2022-09-07T00:02:25.566Z,8.40
2022-09-07T00:04:52.301Z,8.38
2022-09-07T00:07:19.016Z,8.52
2022-09-07T00:09:45.848Z,8.27
2022-09-07T00:12:12.581Z,8.20
2022-09-07T00:14:39.241Z,8.18
2022-09-07T00:17:05.962Z,8.00
2022-09-07T00:19:32.656Z,7.80
2022-09-07T00:21:59.381Z,7.60
2022-09-07T00:24:26.139Z,8.20
2022-09-07T00:26:55.334Z,8.00
2022-09-07T00:29:22.136Z,7.47
2022-09-07T00:31:48.858Z,7.57
2022-09-07T00:34:15.616Z,8.13
2022-09-07T00:36:42.295Z,7.70
2022-09-07T00:39:09.106Z,7.80
2022-09-07T00:41:35.847Z,8.02
2022-09-07T00:44:40.087Z,7.95
2022-09-07T00:47:14.772Z,9.10
2022-09-07T00:49:46.676Z,8.20
2022-09-07T00:52:15.714Z,8.32
2022-09-07T00:54:47.468Z,7.85
2022-09-07T00:57:14.421Z,8.43
2022-09-07T00:59:47.379Z,7.70
2022-09-07T01:02:17.452Z,7.45
2022-09-07T01:04:46.717Z,7.72
2022-09-07T01:07:13.440Z,7.55
2022-09-07T01:09:40.665Z,8.65
2022-09-07T01:12:07.658Z,7.82
2022-09-07T01:14:39.776Z,7.28
2022-09-07T01:17:25.724Z,8.18
2022-09-07T01:20:26.505Z,8.05
2022-09-07T01:23:12.010Z,7.40
2022-09-07T01:28:25.694Z,7.15
2022-09-07T01:30:57.570Z,7.65
2022-09-07T01:33:45.079Z,8.10
2022-09-07T01:36:36.793Z,8.15
2022-09-07T01:39:05.176Z,8.27
2022-09-07T01:41:35.002Z,8.75
2022-09-07T01:44:17.282Z,8.75
2022-09-07T01:46:52.635Z,8.35
2022-09-07T01:49:30.597Z,8.45
2022-09-07T01:52:02.452Z,8.55
2022-09-07T01:54:32.881Z,8.13
2022-09-07T01:57:09.192Z,7.78
2022-09-07T02:00:05.051Z,7.30
2022-09-07T02:05:06.862Z,7.57
2022-09-07T02:07:47.663Z,8.13
2022-09-07T02:10:20.575Z,8.80
2022-09-07T02:13:02.080Z,8.70
2022-09-07T02:15:43.314Z,9.40
2022-09-07T02:18:14.240Z,9.13
2022-09-07T02:20:46.386Z,9.63
2022-09-07T02:23:19.463Z,9.18
2022-09-07T02:25:53.732Z,9.57
2022-09-07T02:28:29.492Z,8.98
2022-09-07T02:30:56.496Z,8.43
2022-09-07T02:33:23.428Z,9.55
2022-09-07T02:35:51.042Z,9.15
2022-09-07T02:38:17.919Z,9.55
2022-09-07T02:40:52.959Z,8.95
2022-09-07T02:46:15.192Z,9.23
2022-09-07T02:48:47.200Z,9.65
2022-09-07T02:51:45.679Z,9.00
2022-09-07T02:54:29.068Z,8.73
2022-09-07T02:57:07.572Z,8.13
2022-09-07T02:59:52.385Z,8.45
2022-09-07T03:02:31.683Z,8.40
2022-09-07T03:05:17.235Z,8.25
2022-09-07T03:10:19.124Z,8.48
2022-09-07T03:12:48.971Z,8.43
2022-09-07T03:15:20.360Z,8.55
2022-09-07T03:17:47.101Z,8.23
2022-09-07T03:20:14.724Z,8.65
2022-09-07T03:22:44.163Z,8.45
2022-09-07T03:25:11.739Z,8.52
2022-09-07T03:27:38.559Z,8.75
2022-09-07T03:30:07.662Z,7.82
2022-09-07T03:32:36.150Z,8.77
2022-09-07T03:35:04.131Z,8.80
2022-09-07T03:37:30.810Z,8.73
2022-09-07T03:39:57.675Z,8.50
2022-09-07T03:42:24.540Z,8.15
2022-09-07T03:44:51.818Z,8.52
2022-09-07T03:47:18.971Z,8.60
2022-09-07T03:49:45.712Z,8.85
2022-09-07T03:52:12.710Z,8.10
2022-09-07T03:54:39.911Z,8.05
2022-09-07T03:57:06.990Z,8.93
2022-09-07T03:59:33.959Z,8.32
2022-09-07T04:02:01.393Z,8.07
2022-09-07T04:04:28.637Z,8.65
2022-09-07T04:06:55.390Z,8.18
2022-09-07T04:09:22.126Z,8.20
2022-09-07T04:11:48.914Z,8.00
2022-09-07T04:14:18.008Z,8.27
2022-09-07T04:16:45.617Z,8.95
2022-09-07T04:19:12.909Z,8.30
2022-09-07T04:21:44.659Z,8.25
2022-09-07T04:24:11.409Z,7.85
2022-09-07T04:26:38.158Z,8.63
2022-09-07T04:29:06.751Z,7.85
2022-09-07T04:31:34.282Z,7.18
2022-09-07T04:34:01.253Z,8.45
2022-09-07T04:36:28.249Z,8.32
2022-09-07T04:39:04.206Z,7.57
2022-09-07T04:41:33.200Z,7.82
2022-09-07T04:44:02.160Z,8.73
2022-09-07T04:46:33.648Z,7.60
2022-09-07T04:49:03.151Z,7.50
2022-09-07T04:51:31.790Z,8.00
2022-09-07T04:54:00.281Z,8.25
2022-09-07T04:56:27.369Z,7.53
2022-09-07T04:58:54.304Z,8.02
2022-09-07T05:01:23.921Z,7.63
2022-09-07T05:03:50.796Z,7.80
2022-09-07T05:06:19.012Z,8.30
2022-09-07T05:08:49.308Z,9.80
2022-09-07T05:11:16.876Z,9.82
2022-09-07T05:13:43.736Z,9.63
2022-09-07T05:16:18.742Z,9.80
2022-09-07T05:21:22.328Z,8.82
2022-09-07T05:23:51.313Z,8.45
2022-09-07T05:26:19.365Z,7.95
2022-09-07T08:31:25.904Z,2.20
2022-09-07T08:33:52.716Z,2.38
2022-09-07T08:36:20.726Z,2.08
2022-09-07T08:38:48.232Z,2.50
2022-09-07T08:41:30.128Z,2.88
2022-09-07T08:44:13.867Z,2.63
2022-09-07T08:46:52.902Z,2.33
2022-09-07T08:49:25.597Z,2.35
2022-09-07T08:52:00.783Z,2.38
2022-09-07T08:54:27.901Z,2.42
2022-09-07T08:59:51.958Z,2.45
2022-09-07T09:02:40.293Z,2.40
2022-09-07T09:05:17.550Z,2.90
2022-09-07T09:08:06.493Z,2.70
2022-09-07T09:11:05.860Z,2.03
2022-09-07T09:13:55.050Z,2.65
2022-09-07T09:16:38.346Z,2.30
2022-09-07T09:19:06.266Z,2.13
2022-09-07T09:21:34.853Z,2.15
2022-09-07T09:24:12.295Z,2.60
2022-09-07T09:26:42.063Z,2.30
2022-09-07T09:29:14.682Z,2.42
2022-09-07T09:31:42.171Z,2.35
2022-09-07T09:34:14.419Z,2.40
2022-09-07T09:36:50.676Z,2.30
2022-09-07T09:39:34.424Z,2.30
2022-09-07T09:42:10.283Z,2.45
2022-09-07T09:44:38.411Z,2.30
2022-09-07T09:49:53.824Z,2.22
2022-09-07T09:52:33.643Z,2.35
2022-09-07T09:55:33.335Z,2.65
2022-09-07T10:03:56.732Z,2.28
2022-09-07T10:06:25.147Z,2.33
2022-09-07T10:08:54.862Z,2.30
2022-09-07T10:14:43.396Z,2.15
2022-09-07T10:17:19.830Z,2.20
2022-09-07T10:19:46.561Z,1.98
2022-09-07T10:22:33.379Z,2.33
2022-09-07T10:25:03.800Z,1.92
2022-09-07T10:27:36.523Z,2.10
2022-09-07T10:30:12.619Z,2.08
2022-09-07T10:33:02.358Z,2.25
2022-09-07T10:35:35.181Z,2.00
2022-09-07T10:38:17.126Z,2.10
2022-09-07T10:41:01.283Z,2.40
2022-09-07T10:43:49.999Z,2.17
2022-09-07T10:53:36.558Z,2.15
2022-09-07T10:56:08.860Z,2.40
2022-09-07T10:59:19.187Z,2.28
2022-09-07T11:02:17.026Z,2.40
2022-09-07T11:05:08.543Z,1.95
2022-09-07T11:07:57.231Z,2.00
2022-09-07T11:10:27.134Z,1.88
2022-09-07T11:12:59.338Z,2.05
2022-09-07T11:15:35.131Z,2.10
2022-09-07T11:18:15.034Z,2.30
2022-09-07T11:20:59.057Z,1.88
2022-09-07T11:23:44.919Z,1.92
2022-09-07T11:26:18.160Z,2.13
2022-09-07T11:29:29.091Z,2.70
2022-09-07T11:31:40.595Z,2.20
2022-09-07T11:34:24.134Z,2.10
2022-09-07T11:37:01.067Z,2.20
2022-09-07T11:39:36.376Z,2.10
2022-09-07T11:45:06.408Z,1.85
2022-09-07T11:48:03.474Z,1.92
2022-09-07T11:50:35.755Z,2.20
2022-09-07T11:53:17.430Z,1.95
2022-09-07T11:55:49.577Z,1.73
2022-09-07T11:58:37.674Z,1.85
2022-09-07T12:01:49.815Z,1.98
2022-09-07T12:04:46.727Z,2.10
2022-09-07T12:07:34.804Z,2.15
2022-09-07T12:10:27.227Z,1.90
2022-09-07T12:12:54.023Z,2.10
2022-09-07T12:15:24.837Z,2.40
2022-09-07T12:18:16.399Z,2.40
2022-09-07T12:20:44.258Z,2.60
2022-09-07T12:23:16.997Z,2.40
2022-09-07T12:25:45.788Z,2.42
2022-09-07T12:28:35.966Z,2.17
2022-09-07T12:31:06.030Z,1.73
2022-09-07T12:33:34.175Z,1.63
2022-09-07T12:36:02.201Z,2.05
2022-09-07T12:38:31.856Z,2.10
2022-09-07T12:41:04.320Z,1.88
2022-09-07T12:43:44.449Z,2.40
2022-09-07T12:46:20.484Z,2.33
2022-09-07T12:48:53.410Z,2.35
2022-09-07T12:54:46.799Z,2.00
2022-09-07T12:57:35.637Z,2.20
2022-09-07T13:00:06.951Z,1.83
2022-09-07T13:03:02.215Z,1.80
2022-09-07T13:05:50.623Z,2.17
2022-09-07T13:08:17.286Z,2.25
2022-09-07T13:10:45.082Z,2.17
2022-09-07T13:13:14.886Z,2.30
2022-09-07T13:15:49.643Z,1.80
2022-09-07T13:18:28.815Z,2.20
2022-09-07T13:21:18.117Z,1.90
2022-09-07T13:27:06.232Z,2.17
2022-09-07T13:29:49.134Z,2.17
2022-09-07T13:35:25.235Z,5.40
2022-09-07T13:38:00.446Z,5.82
2022-09-07T13:40:30.324Z,2.80
2022-09-07T13:42:59.363Z,2.50
2022-09-07T13:45:29.166Z,2.10
2022-09-07T13:48:17.703Z,2.15
2022-09-07T13:51:13.297Z,2.10
2022-09-07T13:53:55.650Z,2.25
2022-09-07T13:56:37.522Z,2.10
2022-09-07T13:59:24.091Z,2.40
2022-09-07T14:01:51.584Z,2.83
2022-09-07T14:04:37.805Z,2.72
2022-09-07T14:07:09.199Z,2.30
2022-09-07T14:09:35.935Z,2.25
2022-09-07T14:12:02.883Z,2.30
2022-09-07T14:14:33.152Z,2.30
2022-09-07T14:16:59.827Z,2.10
2022-09-07T14:19:35.730Z,2.28
2022-09-07T14:22:06.870Z,2.30
2022-09-07T14:24:35.075Z,5.30
2022-09-07T14:27:02.167Z,3.25
2022-09-07T14:29:32.271Z,2.20
2022-09-07T14:32:01.226Z,2.92
2022-09-07T14:34:34.227Z,2.92
2022-09-07T14:37:05.611Z,2.92
2022-09-07T14:39:37.492Z,2.10
2022-09-07T14:42:04.628Z,2.35
2022-09-07T14:44:39.066Z,2.20
2022-09-07T14:47:30.214Z,2.70
2022-09-07T14:50:05.074Z,2.40
2022-09-07T14:53:33.272Z,2.70
2022-09-07T14:55:38.902Z,2.65
2022-09-07T14:58:14.957Z,3.17
2022-09-07T15:03:39.286Z,2.40
2022-09-07T15:06:07.360Z,2.50
2022-09-07T15:08:41.565Z,2.40
2022-09-07T15:11:40.258Z,2.72
2022-09-07T15:14:11.144Z,2.30
2022-09-07T15:16:43.875Z,3.20
2022-09-07T15:19:16.667Z,2.97
2022-09-07T15:21:44.523Z,2.50
2022-09-07T15:24:11.988Z,4.13
2022-09-07T15:27:04.310Z,2.83
2022-09-07T15:29:31.892Z,3.13
2022-09-07T15:32:03.770Z,4.15
2022-09-07T15:34:32.521Z,3.17
2022-09-07T15:37:01.001Z,3.45
2022-09-07T15:39:30.100Z,3.20
2022-09-07T15:41:58.165Z,2.80
2022-09-07T15:44:28.487Z,3.13
2022-09-07T15:49:47.747Z,2.90
2022-09-07T15:52:20.709Z,3.65
2022-09-07T15:54:47.308Z,3.58
2022-09-07T16:00:00.605Z,3.38
2022-09-07T16:05:14.221Z,3.50
2022-09-07T16:10:31.071Z,4.07
2022-09-07T16:13:02.887Z,3.30
2022-09-07T16:15:31.572Z,4.30
2022-09-07T16:17:58.758Z,3.35
2022-09-07T16:20:25.582Z,3.28
2022-09-07T16:25:39.832Z,3.55
2022-09-07T16:28:07.263Z,3.78
2022-09-07T16:30:34.758Z,4.20
2022-09-07T16:33:01.494Z,3.78
2022-09-07T16:35:28.228Z,4.20
2022-09-07T16:40:41.900Z,4.00
2022-09-07T16:43:10.007Z,4.20
2022-09-07T16:48:23.531Z,5.00
2022-09-07T16:51:00.409Z,5.00
2022-09-07T16:53:29.660Z,5.25
2022-09-07T16:56:16.513Z,5.32
2022-09-07T16:58:45.882Z,5.35
2022-09-07T17:01:16.030Z,5.15
2022-09-07T17:03:43.410Z,4.95
2022-09-07T17:06:12.238Z,4.53
2022-09-07T17:08:40.216Z,4.20
2022-09-07T17:11:24.030Z,4.47
2022-09-07T17:13:51.739Z,4.10
2022-09-07T17:16:24.236Z,4.22
2022-09-07T17:21:40.180Z,5.05
2022-09-07T17:24:08.548Z,5.00
2022-09-07T17:26:35.413Z,5.55
2022-09-07T17:29:02.223Z,5.47
2022-09-07T17:34:19.775Z,5.68
2022-09-07T17:36:47.114Z,4.70
2022-09-07T17:39:16.386Z,4.80
2022-09-07T17:41:44.707Z,5.25
2022-09-07T17:44:11.855Z,4.38
2022-09-07T17:46:38.951Z,4.90
2022-09-07T17:49:08.081Z,4.88
2022-09-07T17:51:35.925Z,4.30
2022-09-07T17:54:12.768Z,4.82
2022-09-07T17:56:40.503Z,5.20
2022-09-07T18:01:54.539Z,5.47
2022-09-07T18:04:22.082Z,5.97
2022-09-07T18:06:48.990Z,6.30
2022-09-07T18:09:19.896Z,5.93
2022-09-07T18:11:48.503Z,6.13
2022-09-07T18:14:16.644Z,5.95
2022-09-07T18:16:45.259Z,6.05
2022-09-07T18:19:12.685Z,6.03
2022-09-07T18:21:43.590Z,5.85
2022-09-07T18:24:20.550Z,5.85
2022-09-07T18:26:50.629Z,5.43
2022-09-07T18:29:36.858Z,5.38
2022-09-07T18:32:08.763Z,5.40
2022-09-07T18:34:36.537Z,4.68
2022-09-07T18:37:03.434Z,5.63
2022-09-07T18:39:30.383Z,5.28
2022-09-07T18:41:57.240Z,5.13
2022-09-07T18:47:21.774Z,5.35
2022-09-07T18:49:51.545Z,5.45
2022-09-07T18:55:10.115Z,5.20
2022-09-07T18:57:37.367Z,5.00
2022-09-07T19:00:06.429Z,5.25
2022-09-07T19:02:33.643Z,5.68
2022-09-07T19:07:47.306Z,5.32
2022-09-07T19:10:16.654Z,5.55
2022-09-07T19:12:45.825Z,5.40
2022-09-07T19:15:13.339Z,5.35
2022-09-07T19:17:40.482Z,5.43
2022-09-07T19:20:07.652Z,5.22
2022-09-07T19:32:11.830Z,5.65
2022-09-07T19:34:41.335Z,5.70
2022-09-07T19:37:10.087Z,5.35
2022-09-07T19:39:37.182Z,5.68
2022-09-07T19:42:05.674Z,6.82
2022-09-07T19:44:33.135Z,6.63
2022-09-07T19:47:00.655Z,6.38
2022-09-07T19:49:27.972Z,6.22
2022-09-07T19:51:55.165Z,6.78
2022-09-07T19:54:25.121Z,6.22
2022-09-07T19:56:51.734Z,7.22
2022-09-07T19:59:19.661Z,6.63
2022-09-07T20:01:49.419Z,7.43
2022-09-07T20:04:20.846Z,6.63
2022-09-07T20:06:50.254Z,6.72
2022-09-07T20:09:20.642Z,5.95
2022-09-07T20:11:48.290Z,5.95
2022-09-07T20:14:16.118Z,5.60
2022-09-07T20:16:43.620Z,6.32
2022-09-07T20:19:14.544Z,5.90
2022-09-07T20:21:41.600Z,5.72
2022-09-07T20:24:08.292Z,5.78
2022-09-07T20:26:34.959Z,5.88
2022-09-07T20:29:23.855Z,5.25
2022-09-07T20:31:48.359Z,5.70
2022-09-07T20:34:15.153Z,5.50
2022-09-07T20:36:41.867Z,5.53
2022-09-07T20:39:15.680Z,5.13
2022-09-07T20:41:42.592Z,5.05
2022-09-07T20:44:09.308Z,5.28
2022-09-07T20:46:36.601Z,5.40
2022-09-07T20:49:04.855Z,5.55
2022-09-07T20:51:32.347Z,5.38
2022-09-07T20:53:59.123Z,6.05
2022-09-07T20:56:28.171Z,5.47
2022-09-07T20:58:59.082Z,6.43
2022-09-07T21:01:26.527Z,6.05
2022-09-07T21:03:55.248Z,6.10
2022-09-07T21:06:23.190Z,5.32
2022-09-07T21:08:51.284Z,6.07
2022-09-07T21:11:24.052Z,6.78
2022-09-07T21:14:02.179Z,6.30
2022-09-07T21:16:29.304Z,6.10
2022-09-07T21:18:58.636Z,6.55
2022-09-07T21:21:27.366Z,6.38
2022-09-07T21:24:03.172Z,7.07
2022-09-07T21:26:31.818Z,6.95
2022-09-07T21:29:01.324Z,7.10
2022-09-07T21:31:29.808Z,6.50
2022-09-07T21:33:59.220Z,6.53
2022-09-07T21:36:26.504Z,6.68
2022-09-07T21:38:54.386Z,6.35
2022-09-07T21:41:23.377Z,6.15
2022-09-07T21:43:57.805Z,6.07
2022-09-07T21:46:25.441Z,6.13
2022-09-07T21:48:52.279Z,6.70
2022-09-07T21:51:19.375Z,6.45
2022-09-07T21:53:54.450Z,5.57
2022-09-07T21:58:48.396Z,6.05
2022-09-07T22:01:17.847Z,6.28
2022-09-07T22:03:47.265Z,5.78
2022-09-07T22:06:14.969Z,5.95
2022-09-07T22:08:42.934Z,6.10
2022-09-07T22:11:15.474Z,6.68
2022-09-07T22:13:46.034Z,6.18
2022-09-07T22:16:14.490Z,6.60
2022-09-07T22:18:45.621Z,6.35
2022-09-07T22:21:26.916Z,5.70
2022-09-07T22:23:56.658Z,6.72
2022-09-07T22:26:25.773Z,6.60
2022-09-07T22:28:52.595Z,6.00
2022-09-07T22:31:22.233Z,5.95
2022-09-07T22:33:50.685Z,6.55
2022-09-07T22:36:32.623Z,6.32
2022-09-07T22:39:02.711Z,5.90
2022-09-07T22:41:34.820Z,5.82
2022-09-07T22:44:01.575Z,5.93
2022-09-07T22:46:31.094Z,6.40
2022-09-07T22:48:58.830Z,6.55
2022-09-07T22:51:26.733Z,6.47
2022-09-07T22:53:54.728Z,6.47
2022-09-07T22:56:27.780Z,6.70
2022-09-07T22:58:57.889Z,5.85
2022-09-07T23:01:25.371Z,6.65
2022-09-07T23:03:53.505Z,6.22
2022-09-07T23:06:20.868Z,6.82
2022-09-07T23:08:47.885Z,7.32
2022-09-07T23:11:14.782Z,6.97
2022-09-07T23:13:41.777Z,7.00
2022-09-07T23:16:09.140Z,6.75
2022-09-07T23:18:38.075Z,6.40
2022-09-07T23:21:04.780Z,6.55
2022-09-07T23:23:31.436Z,6.38
2022-09-07T23:26:01.302Z,6.30
2022-09-07T23:28:28.660Z,6.82
2022-09-07T23:30:55.441Z,7.18
2022-09-07T23:33:22.179Z,7.13
2022-09-07T23:36:18.774Z,6.82
2022-09-07T23:38:46.647Z,7.15
2022-09-07T23:41:14.187Z,7.47
2022-09-07T23:43:41.012Z,6.90
2022-09-07T23:46:08.243Z,7.30
2022-09-07T23:48:34.923Z,6.85
2022-09-07T23:51:01.916Z,6.75
2022-09-07T23:53:30.685Z,7.10
2022-09-07T23:55:57.498Z,6.63
2022-09-07T23:58:24.563Z,6.43
